»·PEaware :: N7GL KLAS-KSAN

N7GL :: KLAS-KSAN

FLIGHT INFORMATION

Flight Status: Arrived
Operator: Privately registered:
United States
More flights under this callsign
Pilot: Anonymous 17564 (17564)
Aircraft: GATES LEARJET LEARJET 25
(LJ25)
More flights by this aircraft type
Origin: KLAS McCarran Intl
United States
Destination: KSAN San Diego Intl-Lindbergh
United States
More flights between these airports :: More routes between these airports
Route: +BOACH8 LVELL LUCKI1
File this flight plan on PilotEdge
Remarks:
Altitude:
(Current/Filed)
26,000ft
Speed:
(Current/Filed)
340kts
Departed: 09-Jan-18 06:52 PM
Arrived: 09-Jan-18 07:41 PM
Distance/Time
Traveled:
225nm/0:49
Distance/Time
To Go:
Arrived

Flight Plot

Page will automatically refresh every two minutes.

Flight plan parsing failed; only flown route is shown


Map Options




Map Legend


Flown Route
Filed Route
Departure Airport
Arrival Airport
Navaid (VOR, NDB)
Fix

Horizontal Profiles

Position Reports

Time Latitude Longitude Heading Altitude Ground
Speed
09-Jan-18 18:28 36.081391 -115.170928 90 2118ft 0kts
09-Jan-18 18:29 36.081391 -115.170928 90 2118ft 0kts
09-Jan-18 18:30 36.081391 -115.170928 90 2118ft 0kts
09-Jan-18 18:31 36.081391 -115.170928 90 2118ft 0kts
09-Jan-18 18:32 36.081391 -115.170928 90 2118ft 0kts
09-Jan-18 18:33 36.081391 -115.170928 90 2118ft 0kts
09-Jan-18 18:34 36.081391 -115.170928 90 2118ft 0kts
09-Jan-18 18:35 36.081391 -115.170928 90 2118ft 0kts
09-Jan-18 18:36 36.081391 -115.170928 90 2118ft 0kts
09-Jan-18 18:37 36.081391 -115.170928 90 2118ft 0kts
09-Jan-18 18:38 36.081391 -115.170928 90 2118ft 0kts
09-Jan-18 18:39 36.081391 -115.170928 90 2118ft 0kts
09-Jan-18 18:40 36.081391 -115.170928 90 2118ft 0kts
09-Jan-18 18:41 36.081391 -115.170928 90 2118ft 0kts
09-Jan-18 18:42 36.081391 -115.170928 90 2118ft 0kts
09-Jan-18 18:43 36.081391 -115.170928 90 2118ft 0kts
09-Jan-18 18:44 36.081391 -115.170928 90 2118ft 0kts
09-Jan-18 18:45 36.081391 -115.170928 90 2118ft 0kts
09-Jan-18 18:46 36.081391 -115.170928 90 2118ft 0kts
09-Jan-18 18:47 36.081391 -115.170928 90 2118ft 0kts
09-Jan-18 18:48 36.081309 -115.169519 88 2118ft 11kts
09-Jan-18 18:49 36.082733 -115.168372 24 2118ft 1kts
09-Jan-18 18:50 36.085166 -115.167031 24 2118ft 15kts
09-Jan-18 18:51 36.087936 -115.165441 23 2118ft 13kts
09-Jan-18 18:52 36.091710 -115.163322 24 2118ft 19kts
09-Jan-18 18:53 36.095644 -115.161089 22 2118ft 15kts
09-Jan-18 18:54 36.099121 -115.159088 32 2118ft 4kts
09-Jan-18 18:55 36.099809 -115.157411 96 2118ft 4kts
09-Jan-18 18:56 36.099794 -115.157324 104 2118ft 0kts
09-Jan-18 18:57 36.099327 -115.156526 187 2118ft 2kts
09-Jan-18 18:58 36.085465 -115.164426 205 2233ft 188kts
09-Jan-18 18:59 36.033484 -115.191961 202 5371ft 215kts
09-Jan-18 19:00 35.972347 -115.222174 202 6826ft 259kts
09-Jan-18 19:01 35.928609 -115.283963 246 7007ft 252kts
09-Jan-18 19:02 35.866513 -115.307280 193 8484ft 254kts
09-Jan-18 19:03 35.795141 -115.308168 176 10003ft 268kts
09-Jan-18 19:04 35.705402 -115.297788 175 12066ft 323kts
09-Jan-18 19:05 35.613435 -115.297127 182 13001ft 335kts
09-Jan-18 19:06 35.520013 -115.300957 182 13003ft 335kts
09-Jan-18 19:07 35.426844 -115.304667 182 13005ft 335kts
09-Jan-18 19:08 35.334087 -115.308319 182 13744ft 334kts
09-Jan-18 19:09 35.240232 -115.312016 182 15247ft 339kts
09-Jan-18 19:10 35.145311 -115.315743 182 17182ft 344kts
09-Jan-18 19:11 35.048091 -115.319545 182 19690ft 353kts
09-Jan-18 19:12 34.948785 -115.323434 182 22190ft 361kts
09-Jan-18 19:13 34.863846 -115.326748 183 23392ft 367kts
09-Jan-18 19:14 34.745649 -115.346036 201 25714ft 373kts
09-Jan-18 19:15 34.646735 -115.390222 199 25863ft 380kts
09-Jan-18 19:16 34.546770 -115.433559 199 25856ft 381kts
09-Jan-18 19:17 34.447099 -115.476942 200 25859ft 381kts
09-Jan-18 19:18 34.363947 -115.513087 200 25862ft 382kts
09-Jan-18 19:19 34.269166 -115.571251 210 25863ft 383kts
09-Jan-18 19:20 34.158790 -115.639478 201 25859ft 384kts
09-Jan-18 19:21 34.075807 -115.678535 201 25855ft 385kts
09-Jan-18 19:22 33.975736 -115.725648 201 25849ft 385kts
09-Jan-18 19:23 33.876085 -115.773258 202 25840ft 386kts
09-Jan-18 19:24 33.776330 -115.822301 202 24709ft 385kts
09-Jan-18 19:25 33.677619 -115.868751 201 23834ft 378kts
09-Jan-18 19:26 33.579668 -115.914459 201 23817ft 378kts
09-Jan-18 19:27 33.492461 -115.981116 232 23819ft 381kts
09-Jan-18 19:28 33.433216 -116.086576 232 23819ft 383kts
09-Jan-18 19:29 33.374794 -116.186442 233 23814ft 348kts
09-Jan-18 19:30 33.307717 -116.268733 206 23844ft 354kts
09-Jan-18 19:31 33.218691 -116.319294 208 23908ft 356kts
09-Jan-18 19:32 33.135144 -116.368447 208 22179ft 279kts
09-Jan-18 19:33 33.062289 -116.411169 209 19428ft 300kts
09-Jan-18 19:34 32.990217 -116.458790 225 15385ft 288kts
09-Jan-18 19:35 32.930988 -116.519619 223 12612ft 278kts
09-Jan-18 19:36 32.873312 -116.577799 222 8911ft 273kts
09-Jan-18 19:37 32.818793 -116.632628 223 7908ft 248kts
09-Jan-18 19:38 32.768129 -116.687783 240 7916ft 245kts
09-Jan-18 19:39 32.735513 -116.759432 241 7129ft 246kts
09-Jan-18 19:40 32.703282 -116.830483 249 5726ft 241kts
09-Jan-18 19:41 32.680887 -116.904393 251 5051ft 237kts
09-Jan-18 19:42 32.682044 -116.974488 290 5016ft 181kts
09-Jan-18 19:43 32.696004 -117.035935 281 5063ft 201kts
09-Jan-18 19:44 32.711139 -117.096830 282 3653ft 175kts
09-Jan-18 19:45 32.722871 -117.145731 282 975ft 123kts
09-Jan-18 19:46 32.732978 -117.187380 285 18ft 59kts
09-Jan-18 19:47 32.734227 -117.190117 10 18ft 0kts
09-Jan-18 19:48 32.734228 -117.190117 10 18ft 0kts
09-Jan-18 19:49 32.734621 -117.188915 13 18ft 0kts
09-Jan-18 19:50 32.734621 -117.188915 13 18ft 0kts
09-Jan-18 19:51 32.734621 -117.188915 13 18ft 0kts
09-Jan-18 19:52 32.734621 -117.188915 13 18ft 0kts
09-Jan-18 19:53 32.734621 -117.188915 13 18ft 0kts
09-Jan-18 19:54 32.734621 -117.188915 13 18ft 0kts
09-Jan-18 19:55 32.734621 -117.188915 13 18ft 0kts
09-Jan-18 19:56 32.734621 -117.188915 13 18ft 0kts
09-Jan-18 19:57 32.734621 -117.188915 13 18ft 0kts
09-Jan-18 19:58 32.734621 -117.188915 13 18ft 0kts
09-Jan-18 19:59 32.734621 -117.188915 13 18ft 0kts
09-Jan-18 20:00 32.734621 -117.188915 13 18ft 0kts
09-Jan-18 20:01 32.734621 -117.188915 13 18ft 0kts
09-Jan-18 20:02 32.734621 -117.188915 13 18ft 0kts

Navigation Log

Ident Type
Flight plan parsing failed, navigation log unavailable